createdAt,value
2019-01-29T00:09:15.802Z,2.70
2019-01-29T00:12:19.049Z,2.70
2019-01-29T00:14:46.330Z,2.70
2019-01-29T00:20:41.191Z,2.60
2019-01-29T00:23:08.112Z,2.70
2019-01-29T00:26:28.057Z,2.70
2019-01-29T00:28:49.178Z,2.50
2019-01-29T00:31:14.989Z,2.70
2019-01-29T00:33:41.911Z,2.80
2019-01-29T00:36:08.593Z,2.80
2019-01-29T00:38:41.562Z,2.80
2019-01-29T00:41:08.313Z,2.40
2019-01-29T00:43:35.554Z,2.60
2019-01-29T00:46:04.214Z,2.70
2019-01-29T00:48:34.239Z,2.70
2019-01-29T00:51:01.219Z,2.70
2019-01-29T00:53:39.519Z,2.60
2019-01-29T00:56:12.441Z,2.60
2019-01-29T00:58:39.271Z,2.60
2019-01-29T01:01:26.378Z,2.60
2019-01-29T01:03:53.085Z,2.60
2019-01-29T01:06:19.793Z,2.60
2019-01-29T01:08:47.378Z,2.60
2019-01-29T01:11:14.366Z,2.60
2019-01-29T01:13:53.776Z,2.50
2019-01-29T01:16:20.673Z,2.50
2019-01-29T01:19:03.494Z,2.70
2019-01-29T01:21:46.340Z,2.20
2019-01-29T01:24:15.998Z,2.20
2019-01-29T01:26:55.837Z,2.20
2019-01-29T01:29:24.686Z,2.70
2019-01-29T01:31:51.530Z,2.70
2019-01-29T01:34:18.803Z,2.70
2019-01-29T01:36:47.739Z,2.70
2019-01-29T01:39:35.768Z,2.60
2019-01-29T01:43:09.152Z,2.70
2019-01-29T01:44:41.428Z,2.60
2019-01-29T01:47:15.438Z,2.50
2019-01-29T01:49:43.195Z,2.40
2019-01-29T01:52:09.803Z,2.20
2019-01-29T01:54:36.696Z,2.60
2019-01-29T01:57:22.892Z,2.60
2019-01-29T02:00:12.261Z,2.60
2019-01-29T02:02:39.158Z,2.50
2019-01-29T02:05:09.811Z,2.50
2019-01-29T02:07:39.202Z,2.40
2019-01-29T02:10:24.193Z,2.50
2019-01-29T02:16:00.123Z,2.60
2019-01-29T02:18:44.061Z,2.50
2019-01-29T02:21:25.970Z,2.50
2019-01-29T02:23:58.729Z,2.40
2019-01-29T02:30:16.762Z,2.00
2019-01-29T02:32:33.107Z,2.40
2019-01-29T02:35:21.139Z,2.30
2019-01-29T02:38:07.219Z,2.00
2019-01-29T02:40:53.443Z,2.40
2019-01-29T02:43:32.391Z,2.40
2019-01-29T02:46:18.594Z,2.30
2019-01-29T02:48:52.801Z,2.20
2019-01-29T02:51:20.724Z,2.30
2019-01-29T02:54:10.714Z,2.20
2019-01-29T02:59:58.462Z,2.40
2019-01-29T03:02:25.492Z,2.40
2019-01-29T03:04:53.514Z,2.00
2019-01-29T03:07:20.631Z,2.30
2019-01-29T03:10:08.602Z,2.40
2019-01-29T03:12:46.967Z,2.30
2019-01-29T03:15:22.590Z,2.40
2019-01-29T03:17:49.831Z,2.40
2019-01-29T03:20:25.376Z,1.90
2019-01-29T03:22:58.061Z,2.20
2019-01-29T03:25:51.015Z,2.30
2019-01-29T03:34:56.878Z,2.30
2019-01-29T03:41:03.015Z,2.10
2019-01-29T03:53:06.666Z,2.20
2019-01-29T03:59:36.917Z,2.20
2019-01-29T04:10:43.913Z,2.20
2019-01-29T04:19:14.480Z,2.30
2019-01-29T04:22:15.329Z,2.30
2019-01-29T04:24:55.411Z,2.40
2019-01-29T04:27:35.176Z,2.30
2019-01-29T04:30:07.651Z,2.20
2019-01-29T04:32:58.408Z,2.30
2019-01-29T04:38:41.793Z,2.30
2019-01-29T04:44:41.474Z,2.20
2019-01-29T04:50:04.552Z,2.20
2019-01-29T04:52:37.171Z,2.30
2019-01-29T04:55:11.043Z,2.30
2019-01-29T04:57:38.607Z,2.80
2019-01-29T05:00:45.118Z,2.60
2019-01-29T05:03:13.602Z,2.50
2019-01-29T05:14:54.709Z,2.40
2019-01-29T05:20:17.994Z,2.20
2019-01-29T05:22:51.144Z,2.30
2019-01-29T05:25:31.043Z,2.30
2019-01-29T05:28:06.294Z,2.30
2019-01-29T05:30:34.356Z,2.30
2019-01-29T05:33:16.677Z,2.20
2019-01-29T05:36:05.022Z,2.10
2019-01-29T05:38:50.862Z,2.20
2019-01-29T05:41:38.922Z,2.20
2019-01-29T05:44:30.210Z,1.70
2019-01-29T05:47:14.198Z,2.20
2019-01-29T05:49:55.771Z,1.90
2019-01-29T05:52:33.294Z,2.10
2019-01-29T05:54:59.990Z,2.10
2019-01-29T05:57:27.120Z,2.10
2019-01-29T06:00:01.971Z,2.20
2019-01-29T06:02:28.749Z,1.90
2019-01-29T06:04:57.082Z,2.30
2019-01-29T06:20:54.778Z,2.40
2019-01-29T06:26:15.385Z,2.20
2019-01-29T06:28:44.894Z,2.20
2019-01-29T06:31:31.070Z,2.20
2019-01-29T06:34:26.211Z,2.20
2019-01-29T06:37:06.162Z,2.10
2019-01-29T06:39:39.265Z,2.20
2019-01-29T06:42:03.621Z,2.30
2019-01-29T06:44:31.984Z,2.20
2019-01-29T06:46:58.823Z,2.30
2019-01-29T06:52:29.712Z,2.20
2019-01-29T06:54:59.209Z,2.20
2019-01-29T06:57:38.394Z,2.30
2019-01-29T07:00:11.755Z,1.80
2019-01-29T07:02:42.893Z,2.30
2019-01-29T07:05:33.170Z,2.30
2019-01-29T07:08:19.302Z,2.30
2019-01-29T07:12:38.756Z,2.30
2019-01-29T07:13:32.108Z,1.70
2019-01-29T07:16:03.584Z,2.30
2019-01-29T07:19:21.202Z,2.30
2019-01-29T07:21:48.083Z,2.20
2019-01-29T07:27:14.920Z,2.40
2019-01-29T07:32:37.975Z,2.30
2019-01-29T07:35:08.131Z,2.10
2019-01-29T07:37:41.219Z,2.40
2019-01-29T07:40:20.062Z,2.30
2019-01-29T07:42:47.262Z,2.30
2019-01-29T07:45:18.774Z,2.30
2019-01-29T07:47:45.882Z,2.20
2019-01-29T07:50:26.328Z,2.20
2019-01-29T07:52:53.568Z,2.20
2019-01-29T07:55:20.473Z,2.30
2019-01-29T07:57:47.603Z,2.30
2019-01-29T08:00:16.311Z,2.00
2019-01-29T08:02:45.978Z,2.00
2019-01-29T08:05:12.746Z,2.40
2019-01-29T08:07:46.256Z,2.40
2019-01-29T08:10:36.326Z,2.40
2019-01-29T08:12:56.674Z,2.10
2019-01-29T08:15:28.554Z,2.30
2019-01-29T08:17:55.540Z,2.50
2019-01-29T08:20:22.708Z,2.50
2019-01-29T08:22:49.395Z,2.10
2019-01-29T08:25:16.152Z,2.40
2019-01-29T08:27:43.429Z,2.50
2019-01-29T08:30:16.243Z,2.50
2019-01-29T08:32:49.177Z,2.60
2019-01-29T08:35:19.771Z,2.50
2019-01-29T08:37:50.755Z,2.50
2019-01-29T08:40:17.809Z,2.20
2019-01-29T08:42:44.772Z,2.50
2019-01-29T08:45:14.402Z,2.40
2019-01-29T08:47:41.388Z,2.20
2019-01-29T08:50:14.847Z,2.50
2019-01-29T08:52:42.146Z,2.50
2019-01-29T08:55:10.862Z,2.50
2019-01-29T08:57:41.339Z,2.50
2019-01-29T09:03:07.530Z,2.60
2019-01-29T09:05:34.449Z,2.50
2019-01-29T09:08:01.473Z,2.50
2019-01-29T09:10:35.960Z,2.70
2019-01-29T09:13:05.228Z,2.50
2019-01-29T09:15:32.350Z,2.70
2019-01-29T09:17:59.437Z,2.80
2019-01-29T09:20:28.463Z,2.80
2019-01-29T09:22:55.283Z,2.80
2019-01-29T09:25:22.917Z,2.70
2019-01-29T09:27:50.066Z,2.70
2019-01-29T09:30:19.257Z,2.60
2019-01-29T09:32:53.938Z,2.60
2019-01-29T09:37:55.589Z,2.60
2019-01-29T09:40:24.608Z,2.60
2019-01-29T09:42:51.855Z,2.20
2019-01-29T09:45:19.995Z,2.30
2019-01-29T09:47:47.124Z,2.60
2019-01-29T09:50:39.903Z,2.60
2019-01-29T09:53:06.949Z,2.60
2019-01-29T09:55:38.414Z,2.60
2019-01-29T09:58:15.632Z,2.60
2019-01-29T10:00:36.759Z,2.60
2019-01-29T10:03:03.913Z,2.60
2019-01-29T10:05:30.843Z,2.60
2019-01-29T10:07:58.760Z,2.50
2019-01-29T10:10:25.867Z,2.50
2019-01-29T10:12:55.752Z,2.10
2019-01-29T10:15:25.303Z,2.30
2019-01-29T10:17:54.505Z,1.70
2019-01-29T10:20:22.006Z,2.20
2019-01-29T10:22:51.074Z,2.20
2019-01-29T10:25:18.248Z,2.20
2019-01-29T10:27:45.613Z,2.20
2019-01-29T10:30:29.661Z,2.20
2019-01-29T10:32:56.535Z,2.10
2019-01-29T10:38:44.898Z,1.90
2019-01-29T10:41:16.289Z,1.40
2019-01-29T10:44:09.412Z,1.70
2019-01-29T10:46:55.636Z,1.70
2019-01-29T10:49:35.305Z,1.70
2019-01-29T10:52:34.907Z,1.70
2019-01-29T10:55:24.897Z,1.80
2019-01-29T10:58:06.394Z,1.60
2019-01-29T11:00:44.179Z,1.60
2019-01-29T11:03:18.956Z,1.30
2019-01-29T11:05:45.798Z,1.50
2019-01-29T11:08:37.236Z,1.60
2019-01-29T11:10:55.544Z,1.50
2019-01-29T11:13:22.282Z,1.50
2019-01-29T11:15:49.359Z,1.50
2019-01-29T11:18:21.609Z,1.40
2019-01-29T11:20:48.419Z,1.40
2019-01-29T11:23:42.370Z,1.10
2019-01-29T11:28:39.601Z,1.60
2019-01-29T11:31:06.504Z,1.30
2019-01-29T11:36:30.998Z,1.30
2019-01-29T11:39:05.338Z,1.40
2019-01-29T11:44:33.756Z,1.40
2019-01-29T11:47:00.557Z,1.30
2019-01-29T11:49:29.210Z,1.40
2019-01-29T11:52:15.551Z,1.30
2019-01-29T11:54:50.314Z,1.40
2019-01-29T11:57:16.829Z,1.40
2019-01-29T11:59:43.698Z,1.40
2019-01-29T12:02:35.487Z,1.30
2019-01-29T12:05:04.925Z,1.30
2019-01-29T12:07:31.721Z,1.30
2019-01-29T12:10:00.720Z,1.20
2019-01-29T12:12:27.643Z,1.30
2019-01-29T12:14:54.539Z,1.30
2019-01-29T12:17:21.503Z,1.10
2019-01-29T12:19:48.260Z,1.20
2019-01-29T12:22:14.989Z,1.30
2019-01-29T12:25:17.373Z,1.20
2019-01-29T12:27:15.951Z,1.20
2019-01-29T12:29:42.832Z,1.10
2019-01-29T12:32:12.446Z,1.10
2019-01-29T12:34:39.227Z,1.20
2019-01-29T12:37:32.416Z,1.10
2019-01-29T12:39:48.821Z,1.00
2019-01-29T12:42:15.794Z,1.10
2019-01-29T12:44:42.752Z,1.20
2019-01-29T12:47:11.007Z,1.10
2019-01-29T12:49:38.639Z,1.10
2019-01-29T12:52:06.218Z,1.00
2019-01-29T12:54:32.986Z,1.10
2019-01-29T12:56:59.934Z,1.10
2019-01-29T12:59:29.794Z,1.20
2019-01-29T13:01:56.553Z,1.20
2019-01-29T13:04:23.231Z,1.40
2019-01-29T13:06:50.111Z,1.20
2019-01-29T13:09:21.408Z,1.20
2019-01-29T13:11:48.184Z,1.10
2019-01-29T13:14:20.928Z,1.10
2019-01-29T13:16:47.733Z,1.20
2019-01-29T13:19:14.507Z,1.20
2019-01-29T13:21:41.412Z,1.10
2019-01-29T13:24:10.535Z,1.00
2019-01-29T13:26:43.647Z,1.10
2019-01-29T13:29:10.339Z,1.10
2019-01-29T13:31:54.145Z,1.10
2019-01-29T13:34:20.819Z,1.00
2019-01-29T13:36:47.522Z,1.00
2019-01-29T13:39:16.218Z,1.10
2019-01-29T13:41:43.147Z,1.10
2019-01-29T13:44:44.135Z,1.10
2019-01-29T13:47:01.330Z,1.10
2019-01-29T13:49:46.778Z,1.10
2019-01-29T13:52:13.456Z,1.00
2019-01-29T13:54:52.859Z,1.00
2019-01-29T13:57:45.714Z,1.00
2019-01-29T14:00:16.059Z,1.10
2019-01-29T14:06:01.897Z,0.90
2019-01-29T14:08:28.583Z,0.90
2019-01-29T14:10:55.707Z,1.00
2019-01-29T14:16:11.034Z,1.00
2019-01-29T14:18:39.960Z,1.10
2019-01-29T14:21:09.657Z,0.70
2019-01-29T14:23:40.517Z,1.10
2019-01-29T14:26:07.695Z,1.10
2019-01-29T14:28:40.468Z,1.00
2019-01-29T14:31:07.624Z,1.10
2019-01-29T14:33:34.379Z,1.10
2019-01-29T14:36:01.285Z,1.10
2019-01-29T14:38:48.226Z,1.00
2019-01-29T14:41:40.608Z,1.00
2019-01-29T14:44:07.805Z,0.90
2019-01-29T14:46:34.559Z,0.90
2019-01-29T14:49:04.598Z,1.00
2019-01-29T14:51:31.361Z,1.00
2019-01-29T14:53:58.123Z,0.90
2019-01-29T14:56:24.799Z,1.20
2019-01-29T14:59:00.611Z,1.20
2019-01-29T15:01:27.814Z,1.20
2019-01-29T15:03:54.669Z,1.20
2019-01-29T15:06:32.607Z,1.30
2019-01-29T15:08:59.194Z,1.20
2019-01-29T15:11:28.763Z,1.20
2019-01-29T15:14:05.078Z,1.10
2019-01-29T15:16:33.687Z,1.20
2019-01-29T15:19:02.186Z,1.20
2019-01-29T15:21:37.788Z,1.10
2019-01-29T15:24:20.744Z,1.10
2019-01-29T15:26:47.898Z,1.10
2019-01-29T15:29:14.792Z,0.90
2019-01-29T15:31:41.617Z,1.10
2019-01-29T15:34:08.455Z,1.10
2019-01-29T15:36:44.171Z,0.90
2019-01-29T15:39:11.087Z,1.00
2019-01-29T15:41:45.802Z,1.00
2019-01-29T15:44:12.596Z,1.00
2019-01-29T15:46:50.481Z,0.90
2019-01-29T15:49:34.180Z,1.00
2019-01-29T15:52:02.530Z,0.90
2019-01-29T15:54:35.950Z,0.90
2019-01-29T15:57:48.420Z,0.90
2019-01-29T16:03:32.850Z,0.80
2019-01-29T16:05:59.592Z,0.80
2019-01-29T16:08:26.282Z,0.90
2019-01-29T16:10:57.000Z,0.70
2019-01-29T16:13:30.125Z,0.70
2019-01-29T16:16:06.402Z,0.70
2019-01-29T16:18:34.760Z,0.70
2019-01-29T16:21:27.999Z,0.70
2019-01-29T16:24:10.888Z,0.60
2019-01-29T16:26:55.347Z,0.70
2019-01-29T16:29:23.850Z,0.60
2019-01-29T16:31:50.911Z,0.70
2019-01-29T16:34:30.145Z,0.70
2019-01-29T16:37:18.826Z,0.60
2019-01-29T16:40:14.640Z,0.70
2019-01-29T16:42:32.715Z,0.80
2019-01-29T16:45:38.513Z,0.60
2019-01-29T16:51:30.963Z,0.50
2019-01-29T16:53:59.868Z,0.40
2019-01-29T16:56:26.703Z,0.40
2019-01-29T16:59:12.883Z,0.50
2019-01-29T17:04:31.695Z,0.60
2019-01-29T17:07:20.241Z,0.60
2019-01-29T17:12:12.945Z,0.10
2019-01-29T17:15:08.887Z,0.00
2019-01-29T17:17:28.942Z,0.50
2019-01-29T17:20:00.353Z,0.50
2019-01-29T17:22:27.127Z,0.70
2019-01-29T17:24:57.940Z,0.50
2019-01-29T17:27:40.210Z,0.40
2019-01-29T17:36:55.858Z,0.40
2019-01-29T17:39:34.030Z,0.40
2019-01-29T17:42:05.025Z,0.30
2019-01-29T17:44:35.352Z,0.30
2019-01-29T17:47:06.388Z,0.30
2019-01-29T17:50:00.503Z,0.40
2019-01-29T17:52:47.366Z,0.20
2019-01-29T17:55:25.391Z,0.40
2019-01-29T17:58:16.003Z,0.40
2019-01-29T18:01:03.767Z,0.50
2019-01-29T18:03:32.661Z,0.50
2019-01-29T18:06:02.838Z,0.20
2019-01-29T18:08:29.689Z,0.20
2019-01-29T18:11:05.663Z,0.20
2019-01-29T18:16:27.886Z,0.30
2019-01-29T18:22:04.230Z,0.30
2019-01-29T18:24:30.943Z,0.30
2019-01-29T18:26:57.627Z,0.30
2019-01-29T18:29:56.643Z,0.20
2019-01-29T18:32:14.548Z,0.30
2019-01-29T18:34:44.200Z,0.20
2019-01-29T18:37:10.905Z,0.30
2019-01-29T18:40:10.136Z,0.20
2019-01-29T18:42:38.928Z,0.20
2019-01-29T18:48:04.230Z,0.10
2019-01-29T18:51:23.921Z,0.00
2019-01-29T18:53:50.847Z,0.10
2019-01-29T19:03:06.137Z,0.10
2019-01-29T19:12:02.283Z,0.00
2019-01-29T19:14:51.075Z,0.10
2019-01-29T19:17:31.101Z,0.00
2019-01-29T19:23:22.702Z,0.00
2019-01-29T19:27:00.046Z,-0.10
2019-01-29T19:29:18.175Z,-0.10
2019-01-29T19:31:53.046Z,-0.10
2019-01-29T19:34:27.455Z,0.00
2019-01-29T19:36:54.201Z,-0.10
2019-01-29T19:39:51.245Z,-0.10
2019-01-29T19:45:50.927Z,-0.40
2019-01-29T19:48:42.123Z,-0.30
2019-01-29T19:51:22.094Z,-0.30
2019-01-29T19:53:49.208Z,-0.20
2019-01-29T20:06:31.999Z,-0.10
2019-01-29T20:12:27.146Z,-0.30
2019-01-29T20:15:26.899Z,-0.40
2019-01-29T20:17:56.200Z,-0.40
2019-01-29T20:27:17.099Z,-0.60
2019-01-29T20:46:47.844Z,-0.40
2019-01-29T20:49:14.545Z,-0.30
2019-01-29T21:02:11.488Z,-0.50
2019-01-29T21:04:30.523Z,-0.60
2019-01-29T21:10:43.500Z,-0.40
2019-01-29T21:13:42.087Z,-0.50
2019-01-29T21:19:11.856Z,-0.50
2019-01-29T21:24:59.789Z,-0.80
2019-01-29T21:33:47.303Z,-0.70
2019-01-29T21:36:30.291Z,-0.90
2019-01-29T21:39:15.152Z,-0.90
2019-01-29T21:42:42.380Z,-0.90
2019-01-29T21:45:17.550Z,-1.00
2019-01-29T21:48:07.824Z,-0.90
2019-01-29T21:58:30.190Z,-1.10
2019-01-29T22:00:35.519Z,-1.00
2019-01-29T22:12:27.933Z,-1.30
2019-01-29T22:15:15.097Z,-1.20
2019-01-29T22:21:15.588Z,-1.20
2019-01-29T22:27:27.638Z,-1.20
2019-01-29T22:30:30.755Z,-1.00
2019-01-29T22:33:13.562Z,-1.40
2019-01-29T22:47:43.586Z,-1.80
2019-01-29T22:54:27.236Z,-1.20
2019-01-29T23:20:01.111Z,-1.40
2019-01-29T23:22:59.686Z,-1.20
2019-01-29T23:28:59.367Z,-1.60
2019-01-29T23:37:54.910Z,-1.50
2019-01-29T23:40:19.456Z,-1.50
2019-01-29T23:42:49.402Z,-1.50
2019-01-29T23:45:20.049Z,-1.50
2019-01-29T23:47:48.764Z,-1.50
2019-01-29T23:50:16.424Z,-1.60
2019-01-29T23:52:43.055Z,-1.70
2019-01-29T23:55:10.890Z,-1.50
2019-01-29T23:57:37.842Z,-1.50
